sensor_id;sensor_type;location;lat;lon;timestamp;P1;durP1;ratioP1;P2;durP2;ratioP2
84115;SDS011;74211;52.234;9.860;2024-01-15T00:02:04;13.93;;;8.65;;
84115;SDS011;74211;52.234;9.860;2024-01-15T00:04:36;19.63;;;10.30;;
84115;SDS011;74211;52.234;9.860;2024-01-15T00:07:09;14.93;;;7.05;;
84115;SDS011;74211;52.234;9.860;2024-01-15T00:09:40;13.05;;;8.07;;
84115;SDS011;74211;52.234;9.860;2024-01-15T00:12:10;15.43;;;7.72;;
84115;SDS011;74211;52.234;9.860;2024-01-15T00:14:40;13.10;;;6.75;;
84115;SDS011;74211;52.234;9.860;2024-01-15T00:17:10;11.32;;;6.47;;
84115;SDS011;74211;52.234;9.860;2024-01-15T00:19:40;13.98;;;8.60;;
84115;SDS011;74211;52.234;9.860;2024-01-15T00:22:12;12.88;;;8.30;;
84115;SDS011;74211;52.234;9.860;2024-01-15T00:24:42;12.63;;;6.75;;
84115;SDS011;74211;52.234;9.860;2024-01-15T00:27:13;11.00;;;7.43;;
84115;SDS011;74211;52.234;9.860;2024-01-15T00:29:43;10.07;;;5.55;;
84115;SDS011;74211;52.234;9.860;2024-01-15T00:32:13;9.65;;;5.90;;
84115;SDS011;74211;52.234;9.860;2024-01-15T00:34:43;9.38;;;6.50;;
84115;SDS011;74211;52.234;9.860;2024-01-15T00:37:15;10.63;;;6.15;;
84115;SDS011;74211;52.234;9.860;2024-01-15T00:39:45;11.50;;;5.95;;
84115;SDS011;74211;52.234;9.860;2024-01-15T00:42:15;11.73;;;5.60;;
84115;SDS011;74211;52.234;9.860;2024-01-15T00:44:45;11.63;;;5.53;;
84115;SDS011;74211;52.234;9.860;2024-01-15T00:47:17;10.85;;;5.63;;
84115;SDS011;74211;52.234;9.860;2024-01-15T00:49:48;11.70;;;5.80;;
84115;SDS011;74211;52.234;9.860;2024-01-15T00:52:20;9.13;;;5.95;;
84115;SDS011;74211;52.234;9.860;2024-01-15T00:54:50;9.35;;;5.43;;
84115;SDS011;74211;52.234;9.860;2024-01-15T00:57:21;12.07;;;6.00;;
84115;SDS011;74211;52.234;9.860;2024-01-15T00:59:51;12.10;;;7.63;;
84115;SDS011;74211;52.234;9.860;2024-01-15T01:02:20;9.93;;;7.43;;
84115;SDS011;74211;52.234;9.860;2024-01-15T01:04:50;11.80;;;7.45;;
84115;SDS011;74211;52.234;9.860;2024-01-15T01:07:23;10.60;;;5.72;;
84115;SDS011;74211;52.234;9.860;2024-01-15T01:09:53;9.38;;;6.05;;
84115;SDS011;74211;52.234;9.860;2024-01-15T01:12:24;11.40;;;6.35;;
84115;SDS011;74211;52.234;9.860;2024-01-15T01:14:54;12.98;;;5.75;;
84115;SDS011;74211;52.234;9.860;2024-01-15T01:17:24;12.02;;;6.03;;
84115;SDS011;74211;52.234;9.860;2024-01-15T01:19:55;10.57;;;5.57;;
84115;SDS011;74211;52.234;9.860;2024-01-15T01:22:28;7.78;;;4.93;;
84115;SDS011;74211;52.234;9.860;2024-01-15T01:24:58;12.98;;;4.60;;
84115;SDS011;74211;52.234;9.860;2024-01-15T01:27:27;8.80;;;4.00;;
84115;SDS011;74211;52.234;9.860;2024-01-15T01:29:58;7.60;;;4.00;;
84115;SDS011;74211;52.234;9.860;2024-01-15T01:32:28;6.60;;;3.92;;
84115;SDS011;74211;52.234;9.860;2024-01-15T01:34:59;4.47;;;3.35;;
84115;SDS011;74211;52.234;9.860;2024-01-15T01:37:31;9.25;;;3.65;;
84115;SDS011;74211;52.234;9.860;2024-01-15T01:40:02;10.70;;;4.38;;
84115;SDS011;74211;52.234;9.860;2024-01-15T01:42:32;9.40;;;3.53;;
84115;SDS011;74211;52.234;9.860;2024-01-15T01:45:02;11.45;;;3.47;;
84115;SDS011;74211;52.234;9.860;2024-01-15T01:47:33;14.25;;;5.20;;
84115;SDS011;74211;52.234;9.860;2024-01-15T01:50:04;8.88;;;4.15;;
84115;SDS011;74211;52.234;9.860;2024-01-15T01:52:38;9.02;;;3.55;;
84115;SDS011;74211;52.234;9.860;2024-01-15T01:55:09;11.55;;;4.70;;
84115;SDS011;74211;52.234;9.860;2024-01-15T01:57:40;9.70;;;3.70;;
84115;SDS011;74211;52.234;9.860;2024-01-15T02:00:12;11.07;;;4.88;;
84115;SDS011;74211;52.234;9.860;2024-01-15T02:02:43;8.02;;;4.65;;
84115;SDS011;74211;52.234;9.860;2024-01-15T02:05:13;6.35;;;4.20;;
84115;SDS011;74211;52.234;9.860;2024-01-15T02:07:47;10.40;;;4.30;;
84115;SDS011;74211;52.234;9.860;2024-01-15T02:10:17;7.03;;;3.20;;
84115;SDS011;74211;52.234;9.860;2024-01-15T02:12:47;8.02;;;5.43;;
84115;SDS011;74211;52.234;9.860;2024-01-15T02:15:17;6.95;;;4.05;;
84115;SDS011;74211;52.234;9.860;2024-01-15T02:17:57;8.15;;;4.15;;
84115;SDS011;74211;52.234;9.860;2024-01-15T02:20:28;9.52;;;3.67;;
84115;SDS011;74211;52.234;9.860;2024-01-15T02:23:07;9.05;;;3.83;;
84115;SDS011;74211;52.234;9.860;2024-01-15T02:25:39;11.35;;;3.28;;
84115;SDS011;74211;52.234;9.860;2024-01-15T02:28:10;6.47;;;3.03;;
84115;SDS011;74211;52.234;9.860;2024-01-15T02:30:43;7.85;;;2.85;;
84115;SDS011;74211;52.234;9.860;2024-01-15T02:33:13;6.53;;;3.63;;
84115;SDS011;74211;52.234;9.860;2024-01-15T02:35:43;8.18;;;3.60;;
84115;SDS011;74211;52.234;9.860;2024-01-15T02:38:19;7.28;;;3.45;;
84115;SDS011;74211;52.234;9.860;2024-01-15T02:40:49;4.22;;;3.00;;
84115;SDS011;74211;52.234;9.860;2024-01-15T02:43:19;10.10;;;3.47;;
84115;SDS011;74211;52.234;9.860;2024-01-15T02:45:49;5.75;;;3.25;;
84115;SDS011;74211;52.234;9.860;2024-01-15T02:48:16;11.38;;;4.63;;
84115;SDS011;74211;52.234;9.860;2024-01-15T02:50:47;5.28;;;3.33;;
84115;SDS011;74211;52.234;9.860;2024-01-15T02:53:19;8.15;;;3.45;;
84115;SDS011;74211;52.234;9.860;2024-01-15T02:55:49;11.55;;;3.22;;
84115;SDS011;74211;52.234;9.860;2024-01-15T02:58:19;10.65;;;3.97;;
84115;SDS011;74211;52.234;9.860;2024-01-15T03:00:50;7.10;;;3.10;;
84115;SDS011;74211;52.234;9.860;2024-01-15T03:03:20;8.63;;;3.38;;
84115;SDS011;74211;52.234;9.860;2024-01-15T03:05:50;5.68;;;3.38;;
84115;SDS011;74211;52.234;9.860;2024-01-15T03:08:23;5.40;;;2.90;;
84115;SDS011;74211;52.234;9.860;2024-01-15T03:13:23;5.65;;;2.70;;
84115;SDS011;74211;52.234;9.860;2024-01-15T03:15:53;4.75;;;2.67;;
84115;SDS011;74211;52.234;9.860;2024-01-15T03:18:23;10.88;;;3.40;;
84115;SDS011;74211;52.234;9.860;2024-01-15T03:20:54;8.05;;;4.13;;
84115;SDS011;74211;52.234;9.860;2024-01-15T03:23:26;7.15;;;2.90;;
84115;SDS011;74211;52.234;9.860;2024-01-15T03:25:56;8.25;;;3.63;;
84115;SDS011;74211;52.234;9.860;2024-01-15T03:28:26;6.18;;;3.05;;
84115;SDS011;74211;52.234;9.860;2024-01-15T03:30:57;5.80;;;2.60;;
84115;SDS011;74211;52.234;9.860;2024-01-15T03:33:27;11.52;;;3.08;;
84115;SDS011;74211;52.234;9.860;2024-01-15T03:35:57;4.90;;;3.33;;
84115;SDS011;74211;52.234;9.860;2024-01-15T03:38:30;6.63;;;2.63;;
84115;SDS011;74211;52.234;9.860;2024-01-15T03:41:00;3.90;;;2.47;;
84115;SDS011;74211;52.234;9.860;2024-01-15T03:43:30;8.75;;;2.80;;
84115;SDS011;74211;52.234;9.860;2024-01-15T03:46:00;7.13;;;3.03;;
84115;SDS011;74211;52.234;9.860;2024-01-15T03:48:31;5.50;;;2.60;;
84115;SDS011;74211;52.234;9.860;2024-01-15T03:51:01;4.88;;;2.70;;
84115;SDS011;74211;52.234;9.860;2024-01-15T03:53:34;6.82;;;3.17;;
84115;SDS011;74211;52.234;9.860;2024-01-15T03:56:04;6.72;;;3.28;;
84115;SDS011;74211;52.234;9.860;2024-01-15T03:58:34;8.93;;;3.45;;
84115;SDS011;74211;52.234;9.860;2024-01-15T04:01:07;8.65;;;3.20;;
84115;SDS011;74211;52.234;9.860;2024-01-15T04:03:38;6.65;;;2.85;;
84115;SDS011;74211;52.234;9.860;2024-01-15T04:06:08;13.88;;;4.13;;
84115;SDS011;74211;52.234;9.860;2024-01-15T04:08:41;8.68;;;3.05;;
84115;SDS011;74211;52.234;9.860;2024-01-15T04:11:11;7.57;;;2.47;;
84115;SDS011;74211;52.234;9.860;2024-01-15T04:13:41;5.20;;;2.60;;
84115;SDS011;74211;52.234;9.860;2024-01-15T04:16:11;15.50;;;3.05;;
84115;SDS011;74211;52.234;9.860;2024-01-15T04:18:40;7.68;;;3.15;;
84115;SDS011;74211;52.234;9.860;2024-01-15T04:21:11;6.55;;;2.30;;
84115;SDS011;74211;52.234;9.860;2024-01-15T04:23:43;4.07;;;2.13;;
84115;SDS011;74211;52.234;9.860;2024-01-15T04:26:13;17.08;;;3.72;;
84115;SDS011;74211;52.234;9.860;2024-01-15T04:28:43;5.28;;;1.85;;
84115;SDS011;74211;52.234;9.860;2024-01-15T04:31:20;9.10;;;2.00;;
84115;SDS011;74211;52.234;9.860;2024-01-15T04:33:54;9.93;;;2.28;;
84115;SDS011;74211;52.234;9.860;2024-01-15T04:36:24;7.50;;;2.88;;
84115;SDS011;74211;52.234;9.860;2024-01-15T04:38:56;9.18;;;3.17;;
84115;SDS011;74211;52.234;9.860;2024-01-15T04:41:26;4.82;;;2.53;;
84115;SDS011;74211;52.234;9.860;2024-01-15T04:43:56;4.68;;;2.72;;
84115;SDS011;74211;52.234;9.860;2024-01-15T04:46:27;7.47;;;2.42;;
84115;SDS011;74211;52.234;9.860;2024-01-15T04:48:57;6.70;;;3.42;;
84115;SDS011;74211;52.234;9.860;2024-01-15T04:51:27;10.18;;;3.13;;
84115;SDS011;74211;52.234;9.860;2024-01-15T04:53:59;5.10;;;2.42;;
84115;SDS011;74211;52.234;9.860;2024-01-15T04:56:29;5.47;;;2.60;;
84115;SDS011;74211;52.234;9.860;2024-01-15T04:58:59;7.50;;;2.33;;
84115;SDS011;74211;52.234;9.860;2024-01-15T05:01:30;7.53;;;2.85;;
84115;SDS011;74211;52.234;9.860;2024-01-15T05:04:00;5.68;;;2.42;;
84115;SDS011;74211;52.234;9.860;2024-01-15T05:06:30;6.50;;;3.50;;
84115;SDS011;74211;52.234;9.860;2024-01-15T05:09:03;8.20;;;2.67;;
84115;SDS011;74211;52.234;9.860;2024-01-15T05:11:33;5.40;;;2.75;;
84115;SDS011;74211;52.234;9.860;2024-01-15T05:14:03;4.00;;;2.53;;
84115;SDS011;74211;52.234;9.860;2024-01-15T05:16:33;10.18;;;2.90;;
84115;SDS011;74211;52.234;9.860;2024-01-15T05:19:03;6.50;;;2.80;;
84115;SDS011;74211;52.234;9.860;2024-01-15T05:21:33;6.30;;;4.18;;
84115;SDS011;74211;52.234;9.860;2024-01-15T05:24:06;9.52;;;4.00;;
84115;SDS011;74211;52.234;9.860;2024-01-15T05:26:36;3.50;;;2.42;;
84115;SDS011;74211;52.234;9.860;2024-01-15T05:29:06;4.95;;;3.10;;
84115;SDS011;74211;52.234;9.860;2024-01-15T05:31:36;7.88;;;3.47;;
84115;SDS011;74211;52.234;9.860;2024-01-15T05:34:06;4.13;;;2.88;;
84115;SDS011;74211;52.234;9.860;2024-01-15T05:36:36;7.13;;;3.90;;
84115;SDS011;74211;52.234;9.860;2024-01-15T05:39:09;5.65;;;3.88;;
84115;SDS011;74211;52.234;9.860;2024-01-15T05:41:39;9.80;;;3.53;;
84115;SDS011;74211;52.234;9.860;2024-01-15T05:44:09;6.63;;;3.55;;
84115;SDS011;74211;52.234;9.860;2024-01-15T05:46:39;8.80;;;3.78;;
84115;SDS011;74211;52.234;9.860;2024-01-15T05:49:09;7.18;;;3.10;;
84115;SDS011;74211;52.234;9.860;2024-01-15T05:51:39;9.30;;;3.90;;
84115;SDS011;74211;52.234;9.860;2024-01-15T05:54:12;6.22;;;3.67;;
84115;SDS011;74211;52.234;9.860;2024-01-15T05:59:11;4.65;;;2.78;;
84115;SDS011;74211;52.234;9.860;2024-01-15T06:01:42;7.07;;;3.50;;
84115;SDS011;74211;52.234;9.860;2024-01-15T06:04:12;6.72;;;3.17;;
84115;SDS011;74211;52.234;9.860;2024-01-15T06:06:42;6.55;;;2.90;;
84115;SDS011;74211;52.234;9.860;2024-01-15T06:09:15;7.55;;;3.42;;
84115;SDS011;74211;52.234;9.860;2024-01-15T06:11:45;6.03;;;3.28;;
84115;SDS011;74211;52.234;9.860;2024-01-15T06:14:15;13.35;;;3.92;;
84115;SDS011;74211;52.234;9.860;2024-01-15T06:16:45;4.97;;;2.97;;
84115;SDS011;74211;52.234;9.860;2024-01-15T06:19:16;5.63;;;3.92;;
84115;SDS011;74211;52.234;9.860;2024-01-15T06:21:46;7.07;;;2.85;;
84115;SDS011;74211;52.234;9.860;2024-01-15T06:24:19;4.03;;;2.38;;
84115;SDS011;74211;52.234;9.860;2024-01-15T06:26:49;6.70;;;3.15;;
84115;SDS011;74211;52.234;9.860;2024-01-15T06:29:19;8.73;;;3.30;;
84115;SDS011;74211;52.234;9.860;2024-01-15T06:31:51;9.55;;;3.22;;
84115;SDS011;74211;52.234;9.860;2024-01-15T06:34:21;5.32;;;2.15;;
84115;SDS011;74211;52.234;9.860;2024-01-15T06:36:51;6.20;;;2.63;;
84115;SDS011;74211;52.234;9.860;2024-01-15T06:39:24;10.23;;;5.22;;
84115;SDS011;74211;52.234;9.860;2024-01-15T06:41:54;4.88;;;3.03;;
84115;SDS011;74211;52.234;9.860;2024-01-15T06:44:24;3.78;;;2.20;;
84115;SDS011;74211;52.234;9.860;2024-01-15T06:46:54;4.30;;;2.60;;
84115;SDS011;74211;52.234;9.860;2024-01-15T06:49:29;10.15;;;3.65;;
84115;SDS011;74211;52.234;9.860;2024-01-15T06:51:57;8.10;;;2.88;;
84115;SDS011;74211;52.234;9.860;2024-01-15T06:54:30;7.78;;;2.83;;
84115;SDS011;74211;52.234;9.860;2024-01-15T06:57:00;6.88;;;3.50;;
84115;SDS011;74211;52.234;9.860;2024-01-15T06:59:30;15.18;;;3.67;;
84115;SDS011;74211;52.234;9.860;2024-01-15T07:02:00;5.93;;;2.85;;
84115;SDS011;74211;52.234;9.860;2024-01-15T07:04:31;4.47;;;2.55;;
84115;SDS011;74211;52.234;9.860;2024-01-15T07:07:01;5.72;;;3.13;;
84115;SDS011;74211;52.234;9.860;2024-01-15T07:09:34;7.03;;;3.65;;
84115;SDS011;74211;52.234;9.860;2024-01-15T07:14:34;4.93;;;3.15;;
84115;SDS011;74211;52.234;9.860;2024-01-15T07:17:05;5.80;;;2.88;;
84115;SDS011;74211;52.234;9.860;2024-01-15T07:19:35;4.07;;;2.20;;
84115;SDS011;74211;52.234;9.860;2024-01-15T07:22:06;5.80;;;2.90;;
84115;SDS011;74211;52.234;9.860;2024-01-15T07:24:39;9.63;;;2.70;;
84115;SDS011;74211;52.234;9.860;2024-01-15T07:27:09;7.72;;;2.00;;
84115;SDS011;74211;52.234;9.860;2024-01-15T07:29:39;6.80;;;2.88;;
84115;SDS011;74211;52.234;9.860;2024-01-15T07:32:09;3.75;;;2.00;;
84115;SDS011;74211;52.234;9.860;2024-01-15T07:34:39;4.05;;;2.17;;
84115;SDS011;74211;52.234;9.860;2024-01-15T07:37:10;5.35;;;2.65;;
84115;SDS011;74211;52.234;9.860;2024-01-15T07:39:42;5.97;;;3.63;;
84115;SDS011;74211;52.234;9.860;2024-01-15T07:42:12;4.38;;;2.47;;
84115;SDS011;74211;52.234;9.860;2024-01-15T07:44:42;5.90;;;3.28;;
84115;SDS011;74211;52.234;9.860;2024-01-15T07:47:13;4.22;;;3.40;;
84115;SDS011;74211;52.234;9.860;2024-01-15T07:49:43;8.32;;;3.90;;
84115;SDS011;74211;52.234;9.860;2024-01-15T07:52:13;6.20;;;3.55;;
84115;SDS011;74211;52.234;9.860;2024-01-15T07:54:46;7.68;;;2.53;;
84115;SDS011;74211;52.234;9.860;2024-01-15T07:57:16;7.30;;;5.00;;
84115;SDS011;74211;52.234;9.860;2024-01-15T07:59:46;5.03;;;3.40;;
84115;SDS011;74211;52.234;9.860;2024-01-15T08:02:16;5.03;;;3.20;;
84115;SDS011;74211;52.234;9.860;2024-01-15T08:04:46;3.85;;;2.75;;
84115;SDS011;74211;52.234;9.860;2024-01-15T08:07:16;8.70;;;3.38;;
84115;SDS011;74211;52.234;9.860;2024-01-15T08:09:49;9.73;;;3.53;;
84115;SDS011;74211;52.234;9.860;2024-01-15T08:12:19;5.38;;;3.45;;
84115;SDS011;74211;52.234;9.860;2024-01-15T08:14:49;9.48;;;2.92;;
84115;SDS011;74211;52.234;9.860;2024-01-15T08:17:19;6.38;;;2.55;;
84115;SDS011;74211;52.234;9.860;2024-01-15T08:19:50;5.38;;;2.90;;
84115;SDS011;74211;52.234;9.860;2024-01-15T08:22:20;4.70;;;2.70;;
84115;SDS011;74211;52.234;9.860;2024-01-15T08:24:53;5.78;;;3.78;;
84115;SDS011;74211;52.234;9.860;2024-01-15T08:29:52;7.25;;;3.35;;
84115;SDS011;74211;52.234;9.860;2024-01-15T08:32:22;4.95;;;3.15;;
84115;SDS011;74211;52.234;9.860;2024-01-15T08:34:53;9.93;;;3.03;;
84115;SDS011;74211;52.234;9.860;2024-01-15T08:37:23;5.78;;;3.22;;
84115;SDS011;74211;52.234;9.860;2024-01-15T08:39:56;3.70;;;2.42;;
84115;SDS011;74211;52.234;9.860;2024-01-15T08:44:56;5.38;;;3.25;;
84115;SDS011;74211;52.234;9.860;2024-01-15T08:47:26;4.63;;;1.77;;
84115;SDS011;74211;52.234;9.860;2024-01-15T08:49:56;3.33;;;1.88;;
84115;SDS011;74211;52.234;9.860;2024-01-15T08:52:26;6.80;;;2.22;;
84115;SDS011;74211;52.234;9.860;2024-01-15T08:54:59;3.95;;;2.33;;
84115;SDS011;74211;52.234;9.860;2024-01-15T08:57:29;7.80;;;2.40;;
84115;SDS011;74211;52.234;9.860;2024-01-15T08:59:59;4.90;;;3.00;;
84115;SDS011;74211;52.234;9.860;2024-01-15T09:02:30;4.93;;;2.22;;
84115;SDS011;74211;52.234;9.860;2024-01-15T09:05:00;4.78;;;2.75;;
84115;SDS011;74211;52.234;9.860;2024-01-15T09:07:31;4.22;;;3.28;;
84115;SDS011;74211;52.234;9.860;2024-01-15T09:10:04;6.63;;;3.20;;
84115;SDS011;74211;52.234;9.860;2024-01-15T09:12:34;6.05;;;3.13;;
84115;SDS011;74211;52.234;9.860;2024-01-15T09:15:05;4.63;;;2.22;;
84115;SDS011;74211;52.234;9.860;2024-01-15T09:17:36;4.95;;;3.17;;
84115;SDS011;74211;52.234;9.860;2024-01-15T09:20:06;6.00;;;2.92;;
84115;SDS011;74211;52.234;9.860;2024-01-15T09:22:37;5.07;;;2.17;;
84115;SDS011;74211;52.234;9.860;2024-01-15T09:25:12;9.80;;;2.60;;
84115;SDS011;74211;52.234;9.860;2024-01-15T09:27:41;5.10;;;2.30;;
84115;SDS011;74211;52.234;9.860;2024-01-15T09:30:12;5.07;;;2.67;;
84115;SDS011;74211;52.234;9.860;2024-01-15T09:32:42;8.57;;;3.50;;
84115;SDS011;74211;52.234;9.860;2024-01-15T09:35:12;6.15;;;3.00;;
84115;SDS011;74211;52.234;9.860;2024-01-15T09:37:42;11.18;;;3.65;;
84115;SDS011;74211;52.234;9.860;2024-01-15T09:40:16;10.27;;;3.35;;
84115;SDS011;74211;52.234;9.860;2024-01-15T09:42:50;5.05;;;3.05;;
84115;SDS011;74211;52.234;9.860;2024-01-15T09:45:21;5.18;;;2.72;;
84115;SDS011;74211;52.234;9.860;2024-01-15T09:47:52;7.38;;;3.42;;
84115;SDS011;74211;52.234;9.860;2024-01-15T09:50:22;6.25;;;2.88;;
84115;SDS011;74211;52.234;9.860;2024-01-15T09:52:52;14.32;;;8.07;;
84115;SDS011;74211;52.234;9.860;2024-01-15T09:55:27;7.60;;;3.78;;
84115;SDS011;74211;52.234;9.860;2024-01-15T09:57:59;10.05;;;3.95;;
84115;SDS011;74211;52.234;9.860;2024-01-15T10:00:30;10.30;;;7.15;;
84115;SDS011;74211;52.234;9.860;2024-01-15T10:03:04;8.05;;;3.10;;
84115;SDS011;74211;52.234;9.860;2024-01-15T10:05:35;11.23;;;3.92;;
84115;SDS011;74211;52.234;9.860;2024-01-15T10:08:05;8.45;;;5.45;;
84115;SDS011;74211;52.234;9.860;2024-01-15T10:10:38;10.98;;;5.90;;
84115;SDS011;74211;52.234;9.860;2024-01-15T10:13:08;6.50;;;3.65;;
84115;SDS011;74211;52.234;9.860;2024-01-15T10:15:38;20.33;;;8.90;;
84115;SDS011;74211;52.234;9.860;2024-01-15T10:18:09;7.70;;;4.47;;
84115;SDS011;74211;52.234;9.860;2024-01-15T10:20:39;8.60;;;4.63;;
84115;SDS011;74211;52.234;9.860;2024-01-15T10:23:09;24.17;;;16.80;;
84115;SDS011;74211;52.234;9.860;2024-01-15T10:25:43;31.67;;;22.42;;
84115;SDS011;74211;52.234;9.860;2024-01-15T10:28:13;24.35;;;17.52;;
84115;SDS011;74211;52.234;9.860;2024-01-15T10:30:43;4.70;;;4.00;;
84115;SDS011;74211;52.234;9.860;2024-01-15T10:33:13;17.33;;;8.88;;
84115;SDS011;74211;52.234;9.860;2024-01-15T10:35:45;5.45;;;3.30;;
84115;SDS011;74211;52.234;9.860;2024-01-15T10:38:15;5.45;;;4.05;;
84115;SDS011;74211;52.234;9.860;2024-01-15T10:40:53;11.32;;;4.88;;
84115;SDS011;74211;52.234;9.860;2024-01-15T10:43:24;13.57;;;6.65;;
84115;SDS011;74211;52.234;9.860;2024-01-15T10:45:55;3.75;;;3.28;;
84115;SDS011;74211;52.234;9.860;2024-01-15T10:48:26;6.93;;;3.17;;
84115;SDS011;74211;52.234;9.860;2024-01-15T10:50:57;7.57;;;3.25;;
84115;SDS011;74211;52.234;9.860;2024-01-15T10:53:28;5.78;;;2.60;;
84115;SDS011;74211;52.234;9.860;2024-01-15T10:56:02;8.38;;;2.65;;
84115;SDS011;74211;52.234;9.860;2024-01-15T10:58:34;4.00;;;2.70;;
84115;SDS011;74211;52.234;9.860;2024-01-15T11:01:05;4.53;;;3.55;;
84115;SDS011;74211;52.234;9.860;2024-01-15T11:03:36;3.85;;;3.20;;
84115;SDS011;74211;52.234;9.860;2024-01-15T11:06:15;4.90;;;2.55;;
84115;SDS011;74211;52.234;9.860;2024-01-15T11:08:47;4.00;;;2.85;;
84115;SDS011;74211;52.234;9.860;2024-01-15T11:11:21;3.33;;;2.75;;
84115;SDS011;74211;52.234;9.860;2024-01-15T11:13:51;13.77;;;6.18;;
84115;SDS011;74211;52.234;9.860;2024-01-15T11:16:21;3.10;;;2.63;;
84115;SDS011;74211;52.234;9.860;2024-01-15T11:19:03;5.38;;;2.63;;
84115;SDS011;74211;52.234;9.860;2024-01-15T11:21:35;4.15;;;2.92;;
84115;SDS011;74211;52.234;9.860;2024-01-15T11:24:12;6.82;;;4.70;;
84115;SDS011;74211;52.234;9.860;2024-01-15T11:27:08;3.97;;;2.97;;
84115;SDS011;74211;52.234;9.860;2024-01-15T11:32:08;3.42;;;2.58;;
84115;SDS011;74211;52.234;9.860;2024-01-15T11:34:52;6.93;;;2.75;;
84115;SDS011;74211;52.234;9.860;2024-01-15T11:37:21;7.28;;;3.45;;
84115;SDS011;74211;52.234;9.860;2024-01-15T11:39:52;6.22;;;3.45;;
84115;SDS011;74211;52.234;9.860;2024-01-15T11:42:26;4.90;;;4.15;;
84115;SDS011;74211;52.234;9.860;2024-01-15T11:44:56;6.43;;;3.53;;
84115;SDS011;74211;52.234;9.860;2024-01-15T11:50:30;6.88;;;3.65;;
84115;SDS011;74211;52.234;9.860;2024-01-15T11:53:02;9.60;;;4.38;;
84115;SDS011;74211;52.234;9.860;2024-01-15T11:55:34;3.88;;;2.72;;
84115;SDS011;74211;52.234;9.860;2024-01-15T11:58:09;6.90;;;2.70;;
84115;SDS011;74211;52.234;9.860;2024-01-15T12:00:39;6.07;;;3.60;;
84115;SDS011;74211;52.234;9.860;2024-01-15T12:03:10;3.08;;;2.45;;
84115;SDS011;74211;52.234;9.860;2024-01-15T12:05:41;5.03;;;3.28;;
84115;SDS011;74211;52.234;9.860;2024-01-15T12:08:11;4.75;;;2.53;;
84115;SDS011;74211;52.234;9.860;2024-01-15T12:10:41;5.05;;;3.50;;
84115;SDS011;74211;52.234;9.860;2024-01-15T12:13:14;3.78;;;3.10;;
84115;SDS011;74211;52.234;9.860;2024-01-15T12:15:45;3.95;;;3.45;;
84115;SDS011;74211;52.234;9.860;2024-01-15T12:18:16;3.67;;;2.67;;
84115;SDS011;74211;52.234;9.860;2024-01-15T12:20:48;4.88;;;2.80;;
84115;SDS011;74211;52.234;9.860;2024-01-15T12:23:18;5.82;;;2.55;;
84115;SDS011;74211;52.234;9.860;2024-01-15T12:25:48;7.97;;;2.53;;
84115;SDS011;74211;52.234;9.860;2024-01-15T12:28:21;7.38;;;3.05;;
84115;SDS011;74211;52.234;9.860;2024-01-15T12:30:51;8.57;;;3.20;;
84115;SDS011;74211;52.234;9.860;2024-01-15T12:33:21;4.25;;;2.20;;
84115;SDS011;74211;52.234;9.860;2024-01-15T12:35:52;3.70;;;1.98;;
84115;SDS011;74211;52.234;9.860;2024-01-15T12:38:22;5.15;;;2.20;;
84115;SDS011;74211;52.234;9.860;2024-01-15T12:40:52;6.93;;;3.15;;
84115;SDS011;74211;52.234;9.860;2024-01-15T12:43:25;4.43;;;2.83;;
84115;SDS011;74211;52.234;9.860;2024-01-15T12:48:25;3.85;;;2.20;;
84115;SDS011;74211;52.234;9.860;2024-01-15T12:50:55;11.80;;;4.85;;
84115;SDS011;74211;52.234;9.860;2024-01-15T12:53:25;3.05;;;2.22;;
84115;SDS011;74211;52.234;9.860;2024-01-15T12:55:55;3.25;;;1.80;;
84115;SDS011;74211;52.234;9.860;2024-01-15T12:58:28;5.35;;;3.47;;
84115;SDS011;74211;52.234;9.860;2024-01-15T13:00:58;16.60;;;9.27;;
84115;SDS011;74211;52.234;9.860;2024-01-15T13:03:28;8.60;;;5.05;;
84115;SDS011;74211;52.234;9.860;2024-01-15T13:05:58;5.38;;;2.92;;
84115;SDS011;74211;52.234;9.860;2024-01-15T13:08:28;9.18;;;3.30;;
84115;SDS011;74211;52.234;9.860;2024-01-15T13:10:58;20.33;;;9.75;;
84115;SDS011;74211;52.234;9.860;2024-01-15T13:13:31;9.45;;;4.88;;
84115;SDS011;74211;52.234;9.860;2024-01-15T13:16:01;9.00;;;3.47;;
84115;SDS011;74211;52.234;9.860;2024-01-15T13:18:31;7.40;;;4.25;;
84115;SDS011;74211;52.234;9.860;2024-01-15T13:21:01;5.03;;;2.63;;
84115;SDS011;74211;52.234;9.860;2024-01-15T13:23:32;7.93;;;5.05;;
84115;SDS011;74211;52.234;9.860;2024-01-15T13:26:03;7.60;;;2.80;;
84115;SDS011;74211;52.234;9.860;2024-01-15T13:28:36;9.23;;;3.13;;
84115;SDS011;74211;52.234;9.860;2024-01-15T13:31:06;5.13;;;3.00;;
84115;SDS011;74211;52.234;9.860;2024-01-15T13:33:36;9.98;;;4.00;;
84115;SDS011;74211;52.234;9.860;2024-01-15T13:36:10;5.40;;;2.25;;
84115;SDS011;74211;52.234;9.860;2024-01-15T13:38:40;5.78;;;4.72;;
84115;SDS011;74211;52.234;9.860;2024-01-15T13:41:10;2.97;;;2.17;;
84115;SDS011;74211;52.234;9.860;2024-01-15T13:43:42;3.25;;;2.33;;
84115;SDS011;74211;52.234;9.860;2024-01-15T13:46:13;4.25;;;2.15;;
84115;SDS011;74211;52.234;9.860;2024-01-15T13:48:43;8.45;;;3.90;;
84115;SDS011;74211;52.234;9.860;2024-01-15T13:51:14;4.43;;;1.98;;
84115;SDS011;74211;52.234;9.860;2024-01-15T13:53:44;4.00;;;2.20;;
84115;SDS011;74211;52.234;9.860;2024-01-15T13:56:14;6.38;;;2.75;;
84115;SDS011;74211;52.234;9.860;2024-01-15T13:58:49;6.93;;;2.83;;
84115;SDS011;74211;52.234;9.860;2024-01-15T14:01:19;7.68;;;3.30;;
84115;SDS011;74211;52.234;9.860;2024-01-15T14:03:49;6.97;;;2.60;;
84115;SDS011;74211;52.234;9.860;2024-01-15T14:06:20;4.95;;;2.70;;
84115;SDS011;74211;52.234;9.860;2024-01-15T14:08:51;3.45;;;2.00;;
84115;SDS011;74211;52.234;9.860;2024-01-15T14:11:20;6.10;;;2.85;;
84115;SDS011;74211;52.234;9.860;2024-01-15T14:13:53;5.28;;;2.97;;
84115;SDS011;74211;52.234;9.860;2024-01-15T14:16:23;3.75;;;2.55;;
84115;SDS011;74211;52.234;9.860;2024-01-15T14:18:53;5.47;;;2.00;;
84115;SDS011;74211;52.234;9.860;2024-01-15T14:21:23;8.65;;;2.33;;
84115;SDS011;74211;52.234;9.860;2024-01-15T14:23:53;4.82;;;3.25;;
84115;SDS011;74211;52.234;9.860;2024-01-15T14:26:23;4.50;;;2.15;;
84115;SDS011;74211;52.234;9.860;2024-01-15T14:28:57;6.90;;;2.92;;
84115;SDS011;74211;52.234;9.860;2024-01-15T14:31:27;9.25;;;3.25;;
84115;SDS011;74211;52.234;9.860;2024-01-15T14:34:00;7.50;;;3.45;;
84115;SDS011;74211;52.234;9.860;2024-01-15T14:36:30;10.20;;;4.15;;
84115;SDS011;74211;52.234;9.860;2024-01-15T14:39:01;7.50;;;4.40;;
84115;SDS011;74211;52.234;9.860;2024-01-15T14:41:31;14.75;;;4.43;;
84115;SDS011;74211;52.234;9.860;2024-01-15T14:44:04;13.10;;;4.75;;
84115;SDS011;74211;52.234;9.860;2024-01-15T14:46:33;15.25;;;5.97;;
84115;SDS011;74211;52.234;9.860;2024-01-15T14:49:04;6.72;;;2.78;;
84115;SDS011;74211;52.234;9.860;2024-01-15T14:51:34;8.73;;;3.20;;
84115;SDS011;74211;52.234;9.860;2024-01-15T14:54:04;11.98;;;4.03;;
84115;SDS011;74211;52.234;9.860;2024-01-15T14:56:35;6.57;;;2.30;;
84115;SDS011;74211;52.234;9.860;2024-01-15T14:59:08;3.97;;;2.38;;
84115;SDS011;74211;52.234;9.860;2024-01-15T15:01:38;4.38;;;2.75;;
84115;SDS011;74211;52.234;9.860;2024-01-15T15:04:09;9.15;;;5.03;;
84115;SDS011;74211;52.234;9.860;2024-01-15T15:06:39;4.60;;;2.75;;
84115;SDS011;74211;52.234;9.860;2024-01-15T15:09:10;6.72;;;2.80;;
84115;SDS011;74211;52.234;9.860;2024-01-15T15:11:40;5.45;;;3.40;;
84115;SDS011;74211;52.234;9.860;2024-01-15T15:14:13;3.63;;;2.10;;
84115;SDS011;74211;52.234;9.860;2024-01-15T15:16:43;5.97;;;3.85;;
84115;SDS011;74211;52.234;9.860;2024-01-15T15:19:13;8.52;;;3.83;;
84115;SDS011;74211;52.234;9.860;2024-01-15T15:21:44;4.15;;;2.42;;
84115;SDS011;74211;52.234;9.860;2024-01-15T15:24:15;5.63;;;2.40;;
84115;SDS011;74211;52.234;9.860;2024-01-15T15:26:45;8.60;;;3.35;;
84115;SDS011;74211;52.234;9.860;2024-01-15T15:29:17;6.20;;;2.53;;